sensor_id;sensor_type;location;lat;lon;timestamp;P1;durP1;ratioP1;P2;durP2;ratioP2
67516;SDS011;68821;59.134;37.894;2023-10-31T00:01:06;8.68;;;4.18;;
67516;SDS011;68821;59.134;37.894;2023-10-31T00:03:32;9.00;;;4.65;;
67516;SDS011;68821;59.134;37.894;2023-10-31T00:05:58;8.88;;;4.25;;
67516;SDS011;68821;59.134;37.894;2023-10-31T00:08:24;7.75;;;3.58;;
67516;SDS011;68821;59.134;37.894;2023-10-31T00:10:50;8.05;;;3.60;;
67516;SDS011;68821;59.134;37.894;2023-10-31T00:13:16;12.68;;;4.30;;
67516;SDS011;68821;59.134;37.894;2023-10-31T00:15:42;8.10;;;3.72;;
67516;SDS011;68821;59.134;37.894;2023-10-31T00:18:08;10.05;;;3.78;;
67516;SDS011;68821;59.134;37.894;2023-10-31T00:20:34;10.05;;;4.28;;
67516;SDS011;68821;59.134;37.894;2023-10-31T00:23:00;10.57;;;4.30;;
67516;SDS011;68821;59.134;37.894;2023-10-31T00:25:26;9.90;;;4.05;;
67516;SDS011;68821;59.134;37.894;2023-10-31T00:27:52;10.13;;;3.65;;
67516;SDS011;68821;59.134;37.894;2023-10-31T00:30:18;6.82;;;3.42;;
67516;SDS011;68821;59.134;37.894;2023-10-31T00:32:44;8.02;;;3.22;;
67516;SDS011;68821;59.134;37.894;2023-10-31T00:35:10;7.32;;;3.10;;
67516;SDS011;68821;59.134;37.894;2023-10-31T00:37:38;9.63;;;3.45;;
67516;SDS011;68821;59.134;37.894;2023-10-31T00:40:07;8.43;;;3.58;;
67516;SDS011;68821;59.134;37.894;2023-10-31T00:42:37;6.68;;;2.78;;
67516;SDS011;68821;59.134;37.894;2023-10-31T00:45:03;7.38;;;3.05;;
67516;SDS011;68821;59.134;37.894;2023-10-31T00:47:30;7.65;;;3.22;;
67516;SDS011;68821;59.134;37.894;2023-10-31T00:49:56;8.35;;;2.53;;
67516;SDS011;68821;59.134;37.894;2023-10-31T00:52:22;6.80;;;3.00;;
67516;SDS011;68821;59.134;37.894;2023-10-31T00:54:48;6.07;;;3.13;;
67516;SDS011;68821;59.134;37.894;2023-10-31T00:57:14;7.63;;;3.10;;
67516;SDS011;68821;59.134;37.894;2023-10-31T00:59:40;6.05;;;2.58;;
67516;SDS011;68821;59.134;37.894;2023-10-31T01:02:06;7.45;;;2.80;;
67516;SDS011;68821;59.134;37.894;2023-10-31T01:04:32;6.78;;;3.03;;
67516;SDS011;68821;59.134;37.894;2023-10-31T01:06:58;7.05;;;3.40;;
67516;SDS011;68821;59.134;37.894;2023-10-31T01:09:24;6.22;;;3.05;;
67516;SDS011;68821;59.134;37.894;2023-10-31T01:11:50;8.23;;;3.60;;
67516;SDS011;68821;59.134;37.894;2023-10-31T01:14:16;8.25;;;3.25;;
67516;SDS011;68821;59.134;37.894;2023-10-31T01:16:42;7.13;;;3.08;;
67516;SDS011;68821;59.134;37.894;2023-10-31T01:19:08;5.72;;;2.63;;
67516;SDS011;68821;59.134;37.894;2023-10-31T01:21:35;5.90;;;2.80;;
67516;SDS011;68821;59.134;37.894;2023-10-31T01:24:01;7.25;;;2.65;;
67516;SDS011;68821;59.134;37.894;2023-10-31T01:26:27;6.93;;;2.92;;
67516;SDS011;68821;59.134;37.894;2023-10-31T01:28:53;7.90;;;3.90;;
67516;SDS011;68821;59.134;37.894;2023-10-31T01:31:19;7.30;;;3.13;;
67516;SDS011;68821;59.134;37.894;2023-10-31T01:33:46;7.55;;;3.17;;
67516;SDS011;68821;59.134;37.894;2023-10-31T01:36:12;7.80;;;3.28;;
67516;SDS011;68821;59.134;37.894;2023-10-31T01:41:06;6.20;;;2.80;;
67516;SDS011;68821;59.134;37.894;2023-10-31T01:43:36;8.48;;;3.50;;
67516;SDS011;68821;59.134;37.894;2023-10-31T01:46:03;11.60;;;3.72;;
67516;SDS011;68821;59.134;37.894;2023-10-31T01:48:31;7.20;;;3.45;;
67516;SDS011;68821;59.134;37.894;2023-10-31T01:50:58;6.72;;;3.22;;
67516;SDS011;68821;59.134;37.894;2023-10-31T01:53:26;5.93;;;3.03;;
67516;SDS011;68821;59.134;37.894;2023-10-31T01:55:54;7.95;;;3.58;;
67516;SDS011;68821;59.134;37.894;2023-10-31T01:58:23;6.70;;;3.35;;
67516;SDS011;68821;59.134;37.894;2023-10-31T02:00:54;7.03;;;3.03;;
67516;SDS011;68821;59.134;37.894;2023-10-31T02:03:21;7.32;;;3.25;;
67516;SDS011;68821;59.134;37.894;2023-10-31T02:05:48;9.88;;;3.50;;
67516;SDS011;68821;59.134;37.894;2023-10-31T02:08:14;7.72;;;3.55;;
67516;SDS011;68821;59.134;37.894;2023-10-31T02:10:40;10.15;;;3.65;;
67516;SDS011;68821;59.134;37.894;2023-10-31T02:13:10;10.30;;;4.22;;
67516;SDS011;68821;59.134;37.894;2023-10-31T02:15:43;8.38;;;3.55;;
67516;SDS011;68821;59.134;37.894;2023-10-31T02:18:10;9.10;;;3.90;;
67516;SDS011;68821;59.134;37.894;2023-10-31T02:20:37;6.53;;;3.22;;
67516;SDS011;68821;59.134;37.894;2023-10-31T02:23:03;7.50;;;3.63;;
67516;SDS011;68821;59.134;37.894;2023-10-31T02:25:30;7.70;;;3.33;;
67516;SDS011;68821;59.134;37.894;2023-10-31T02:27:56;8.45;;;3.38;;
67516;SDS011;68821;59.134;37.894;2023-10-31T02:30:23;6.90;;;3.25;;
67516;SDS011;68821;59.134;37.894;2023-10-31T02:32:50;7.38;;;3.25;;
67516;SDS011;68821;59.134;37.894;2023-10-31T02:35:17;9.43;;;3.53;;
67516;SDS011;68821;59.134;37.894;2023-10-31T02:37:44;10.30;;;4.13;;
67516;SDS011;68821;59.134;37.894;2023-10-31T02:40:11;8.18;;;2.85;;
67516;SDS011;68821;59.134;37.894;2023-10-31T02:42:38;8.82;;;3.72;;
67516;SDS011;68821;59.134;37.894;2023-10-31T02:45:05;6.80;;;3.63;;
67516;SDS011;68821;59.134;37.894;2023-10-31T02:47:32;8.85;;;3.78;;
67516;SDS011;68821;59.134;37.894;2023-10-31T02:49:58;9.27;;;3.50;;
67516;SDS011;68821;59.134;37.894;2023-10-31T02:52:26;9.98;;;3.53;;
67516;SDS011;68821;59.134;37.894;2023-10-31T02:54:53;8.23;;;3.70;;
67516;SDS011;68821;59.134;37.894;2023-10-31T02:57:19;8.85;;;3.95;;
67516;SDS011;68821;59.134;37.894;2023-10-31T02:59:45;6.88;;;3.58;;
67516;SDS011;68821;59.134;37.894;2023-10-31T03:02:12;10.75;;;4.30;;
67516;SDS011;68821;59.134;37.894;2023-10-31T03:04:38;8.40;;;3.88;;
67516;SDS011;68821;59.134;37.894;2023-10-31T03:07:04;9.20;;;4.18;;
67516;SDS011;68821;59.134;37.894;2023-10-31T03:09:30;9.95;;;3.78;;
67516;SDS011;68821;59.134;37.894;2023-10-31T03:11:56;9.38;;;3.30;;
67516;SDS011;68821;59.134;37.894;2023-10-31T03:14:23;7.47;;;3.92;;
67516;SDS011;68821;59.134;37.894;2023-10-31T03:19:16;6.32;;;3.10;;
67516;SDS011;68821;59.134;37.894;2023-10-31T03:21:43;8.63;;;3.50;;
67516;SDS011;68821;59.134;37.894;2023-10-31T03:24:09;15.15;;;6.85;;
67516;SDS011;68821;59.134;37.894;2023-10-31T03:26:35;10.13;;;3.65;;
67516;SDS011;68821;59.134;37.894;2023-10-31T03:29:01;7.32;;;3.10;;
67516;SDS011;68821;59.134;37.894;2023-10-31T03:31:27;9.85;;;3.75;;
67516;SDS011;68821;59.134;37.894;2023-10-31T03:33:54;9.02;;;3.67;;
67516;SDS011;68821;59.134;37.894;2023-10-31T03:36:20;7.60;;;3.25;;
67516;SDS011;68821;59.134;37.894;2023-10-31T03:38:46;6.57;;;2.92;;
67516;SDS011;68821;59.134;37.894;2023-10-31T03:41:13;8.15;;;3.72;;
67516;SDS011;68821;59.134;37.894;2023-10-31T03:43:39;7.43;;;3.15;;
67516;SDS011;68821;59.134;37.894;2023-10-31T03:46:05;10.10;;;4.60;;
67516;SDS011;68821;59.134;37.894;2023-10-31T03:48:31;6.40;;;2.97;;
67516;SDS011;68821;59.134;37.894;2023-10-31T03:50:57;6.90;;;3.08;;
67516;SDS011;68821;59.134;37.894;2023-10-31T03:53:24;8.93;;;3.50;;
67516;SDS011;68821;59.134;37.894;2023-10-31T03:55:50;7.70;;;3.47;;
67516;SDS011;68821;59.134;37.894;2023-10-31T03:58:16;8.82;;;2.80;;
67516;SDS011;68821;59.134;37.894;2023-10-31T04:00:43;5.68;;;2.63;;
67516;SDS011;68821;59.134;37.894;2023-10-31T04:03:09;7.65;;;2.97;;
67516;SDS011;68821;59.134;37.894;2023-10-31T04:05:35;9.88;;;4.07;;
67516;SDS011;68821;59.134;37.894;2023-10-31T04:08:01;6.68;;;3.00;;
67516;SDS011;68821;59.134;37.894;2023-10-31T04:10:28;6.60;;;2.97;;
67516;SDS011;68821;59.134;37.894;2023-10-31T04:12:54;6.25;;;3.13;;
67516;SDS011;68821;59.134;37.894;2023-10-31T04:15:21;8.10;;;3.42;;
67516;SDS011;68821;59.134;37.894;2023-10-31T04:17:47;6.28;;;2.55;;
67516;SDS011;68821;59.134;37.894;2023-10-31T04:20:13;7.70;;;3.33;;
67516;SDS011;68821;59.134;37.894;2023-10-31T04:22:40;7.75;;;3.30;;
67516;SDS011;68821;59.134;37.894;2023-10-31T04:25:06;7.57;;;3.65;;
67516;SDS011;68821;59.134;37.894;2023-10-31T04:27:33;7.40;;;3.58;;
67516;SDS011;68821;59.134;37.894;2023-10-31T04:29:59;9.45;;;4.25;;
67516;SDS011;68821;59.134;37.894;2023-10-31T04:32:26;10.25;;;3.97;;
67516;SDS011;68821;59.134;37.894;2023-10-31T04:34:52;7.60;;;3.45;;
67516;SDS011;68821;59.134;37.894;2023-10-31T04:37:18;9.70;;;4.00;;
67516;SDS011;68821;59.134;37.894;2023-10-31T04:39:44;9.15;;;4.38;;
67516;SDS011;68821;59.134;37.894;2023-10-31T04:42:11;16.55;;;4.60;;
67516;SDS011;68821;59.134;37.894;2023-10-31T04:44:37;13.45;;;4.55;;
67516;SDS011;68821;59.134;37.894;2023-10-31T04:47:03;13.75;;;5.68;;
67516;SDS011;68821;59.134;37.894;2023-10-31T04:49:30;10.07;;;4.95;;
67516;SDS011;68821;59.134;37.894;2023-10-31T04:51:56;11.80;;;4.50;;
67516;SDS011;68821;59.134;37.894;2023-10-31T04:54:22;11.20;;;4.45;;
67516;SDS011;68821;59.134;37.894;2023-10-31T04:56:49;9.30;;;4.18;;
67516;SDS011;68821;59.134;37.894;2023-10-31T04:59:15;9.32;;;3.28;;
67516;SDS011;68821;59.134;37.894;2023-10-31T05:01:41;9.07;;;3.65;;
67516;SDS011;68821;59.134;37.894;2023-10-31T05:04:13;9.07;;;4.13;;
67516;SDS011;68821;59.134;37.894;2023-10-31T05:06:39;8.70;;;3.95;;
67516;SDS011;68821;59.134;37.894;2023-10-31T05:09:06;8.13;;;3.25;;
67516;SDS011;68821;59.134;37.894;2023-10-31T05:11:32;10.00;;;4.35;;
67516;SDS011;68821;59.134;37.894;2023-10-31T05:13:58;10.68;;;4.25;;
67516;SDS011;68821;59.134;37.894;2023-10-31T05:16:25;10.07;;;3.72;;
67516;SDS011;68821;59.134;37.894;2023-10-31T05:18:51;6.90;;;2.97;;
67516;SDS011;68821;59.134;37.894;2023-10-31T05:21:18;9.82;;;3.45;;
67516;SDS011;68821;59.134;37.894;2023-10-31T05:23:49;8.60;;;4.15;;
67516;SDS011;68821;59.134;37.894;2023-10-31T05:26:15;10.85;;;4.10;;
67516;SDS011;68821;59.134;37.894;2023-10-31T05:28:42;11.93;;;3.60;;
67516;SDS011;68821;59.134;37.894;2023-10-31T05:31:08;11.13;;;3.88;;
67516;SDS011;68821;59.134;37.894;2023-10-31T05:33:35;8.82;;;4.25;;
67516;SDS011;68821;59.134;37.894;2023-10-31T05:36:01;10.20;;;4.63;;
67516;SDS011;68821;59.134;37.894;2023-10-31T05:38:28;9.63;;;4.15;;
67516;SDS011;68821;59.134;37.894;2023-10-31T05:40:54;9.07;;;3.38;;
67516;SDS011;68821;59.134;37.894;2023-10-31T05:43:20;8.35;;;3.83;;
67516;SDS011;68821;59.134;37.894;2023-10-31T05:45:46;10.95;;;4.07;;
67516;SDS011;68821;59.134;37.894;2023-10-31T05:48:13;9.38;;;3.63;;
67516;SDS011;68821;59.134;37.894;2023-10-31T05:50:41;7.65;;;3.75;;
67516;SDS011;68821;59.134;37.894;2023-10-31T05:58:01;11.32;;;4.28;;
67516;SDS011;68821;59.134;37.894;2023-10-31T06:00:27;12.38;;;5.13;;
67516;SDS011;68821;59.134;37.894;2023-10-31T06:02:53;11.18;;;5.10;;
67516;SDS011;68821;59.134;37.894;2023-10-31T06:05:20;15.30;;;4.90;;
67516;SDS011;68821;59.134;37.894;2023-10-31T06:07:46;10.55;;;4.78;;
67516;SDS011;68821;59.134;37.894;2023-10-31T06:10:12;13.73;;;5.53;;
67516;SDS011;68821;59.134;37.894;2023-10-31T06:12:38;9.00;;;4.35;;
67516;SDS011;68821;59.134;37.894;2023-10-31T06:15:05;12.00;;;5.32;;
67516;SDS011;68821;59.134;37.894;2023-10-31T06:17:32;10.25;;;4.68;;
67516;SDS011;68821;59.134;37.894;2023-10-31T06:20:00;15.95;;;4.88;;
67516;SDS011;68821;59.134;37.894;2023-10-31T06:27:19;11.60;;;5.70;;
67516;SDS011;68821;59.134;37.894;2023-10-31T06:29:46;12.23;;;5.38;;
67516;SDS011;68821;59.134;37.894;2023-10-31T06:32:12;11.15;;;5.38;;
67516;SDS011;68821;59.134;37.894;2023-10-31T06:34:38;14.43;;;6.07;;
67516;SDS011;68821;59.134;37.894;2023-10-31T06:37:04;13.98;;;6.97;;
67516;SDS011;68821;59.134;37.894;2023-10-31T06:39:30;15.70;;;6.95;;
67516;SDS011;68821;59.134;37.894;2023-10-31T06:41:58;16.00;;;7.05;;
67516;SDS011;68821;59.134;37.894;2023-10-31T06:44:24;12.23;;;5.95;;
67516;SDS011;68821;59.134;37.894;2023-10-31T06:46:51;13.88;;;5.65;;
67516;SDS011;68821;59.134;37.894;2023-10-31T06:49:18;17.27;;;7.28;;
67516;SDS011;68821;59.134;37.894;2023-10-31T06:51:45;18.80;;;7.25;;
67516;SDS011;68821;59.134;37.894;2023-10-31T06:54:11;17.27;;;7.10;;
67516;SDS011;68821;59.134;37.894;2023-10-31T06:56:38;17.33;;;6.72;;
67516;SDS011;68821;59.134;37.894;2023-10-31T06:59:04;12.40;;;5.53;;
67516;SDS011;68821;59.134;37.894;2023-10-31T07:01:30;11.32;;;4.68;;
67516;SDS011;68821;59.134;37.894;2023-10-31T07:03:57;8.38;;;4.20;;
67516;SDS011;68821;59.134;37.894;2023-10-31T07:06:23;8.18;;;4.00;;
67516;SDS011;68821;59.134;37.894;2023-10-31T07:08:49;12.55;;;5.13;;
67516;SDS011;68821;59.134;37.894;2023-10-31T07:11:15;13.80;;;5.80;;
67516;SDS011;68821;59.134;37.894;2023-10-31T07:13:42;14.57;;;5.47;;
67516;SDS011;68821;59.134;37.894;2023-10-31T07:16:08;12.73;;;5.05;;
67516;SDS011;68821;59.134;37.894;2023-10-31T07:18:34;11.77;;;5.45;;
67516;SDS011;68821;59.134;37.894;2023-10-31T07:21:00;16.35;;;6.10;;
67516;SDS011;68821;59.134;37.894;2023-10-31T07:23:27;13.25;;;5.90;;
67516;SDS011;68821;59.134;37.894;2023-10-31T07:25:53;16.40;;;6.50;;
67516;SDS011;68821;59.134;37.894;2023-10-31T07:28:19;11.32;;;5.28;;
67516;SDS011;68821;59.134;37.894;2023-10-31T07:30:45;13.13;;;5.30;;
67516;SDS011;68821;59.134;37.894;2023-10-31T07:33:11;10.88;;;4.80;;
67516;SDS011;68821;59.134;37.894;2023-10-31T07:35:37;10.82;;;4.90;;
67516;SDS011;68821;59.134;37.894;2023-10-31T07:38:04;14.57;;;6.32;;
67516;SDS011;68821;59.134;37.894;2023-10-31T07:40:30;13.85;;;5.57;;
67516;SDS011;68821;59.134;37.894;2023-10-31T07:42:56;20.02;;;7.25;;
67516;SDS011;68821;59.134;37.894;2023-10-31T07:45:22;18.35;;;7.78;;
67516;SDS011;68821;59.134;37.894;2023-10-31T07:47:49;15.07;;;7.68;;
67516;SDS011;68821;59.134;37.894;2023-10-31T07:50:15;16.67;;;7.50;;
67516;SDS011;68821;59.134;37.894;2023-10-31T07:52:41;15.05;;;6.65;;
67516;SDS011;68821;59.134;37.894;2023-10-31T07:55:09;16.70;;;7.35;;
67516;SDS011;68821;59.134;37.894;2023-10-31T07:57:37;20.98;;;8.23;;
67516;SDS011;68821;59.134;37.894;2023-10-31T08:00:03;14.65;;;6.68;;
67516;SDS011;68821;59.134;37.894;2023-10-31T08:02:30;17.25;;;7.05;;
67516;SDS011;68821;59.134;37.894;2023-10-31T08:04:56;17.55;;;7.57;;
67516;SDS011;68821;59.134;37.894;2023-10-31T08:07:22;18.13;;;7.35;;
67516;SDS011;68821;59.134;37.894;2023-10-31T08:09:49;15.60;;;7.32;;
67516;SDS011;68821;59.134;37.894;2023-10-31T08:12:15;15.95;;;6.72;;
67516;SDS011;68821;59.134;37.894;2023-10-31T08:14:41;12.88;;;6.47;;
67516;SDS011;68821;59.134;37.894;2023-10-31T08:17:08;17.30;;;7.13;;
67516;SDS011;68821;59.134;37.894;2023-10-31T08:19:34;17.70;;;7.50;;
67516;SDS011;68821;59.134;37.894;2023-10-31T08:22:01;15.65;;;7.95;;
67516;SDS011;68821;59.134;37.894;2023-10-31T08:24:27;22.38;;;8.73;;
67516;SDS011;68821;59.134;37.894;2023-10-31T08:26:53;20.60;;;8.38;;
67516;SDS011;68821;59.134;37.894;2023-10-31T08:29:19;21.60;;;8.52;;
67516;SDS011;68821;59.134;37.894;2023-10-31T08:31:45;18.88;;;7.90;;
67516;SDS011;68821;59.134;37.894;2023-10-31T08:34:12;18.27;;;8.65;;
67516;SDS011;68821;59.134;37.894;2023-10-31T08:36:38;17.30;;;9.02;;
67516;SDS011;68821;59.134;37.894;2023-10-31T08:39:04;18.52;;;8.55;;
67516;SDS011;68821;59.134;37.894;2023-10-31T08:41:30;17.63;;;7.70;;
67516;SDS011;68821;59.134;37.894;2023-10-31T08:43:57;20.88;;;8.73;;
67516;SDS011;68821;59.134;37.894;2023-10-31T08:46:24;16.65;;;8.38;;
67516;SDS011;68821;59.134;37.894;2023-10-31T08:48:50;18.20;;;7.78;;
67516;SDS011;68821;59.134;37.894;2023-10-31T08:51:16;20.30;;;8.00;;
67516;SDS011;68821;59.134;37.894;2023-10-31T08:53:42;17.83;;;7.95;;
67516;SDS011;68821;59.134;37.894;2023-10-31T08:56:08;18.08;;;7.97;;
67516;SDS011;68821;59.134;37.894;2023-10-31T08:58:34;17.42;;;7.22;;
67516;SDS011;68821;59.134;37.894;2023-10-31T09:01:01;23.77;;;9.15;;
67516;SDS011;68821;59.134;37.894;2023-10-31T09:03:27;26.88;;;11.38;;
67516;SDS011;68821;59.134;37.894;2023-10-31T09:05:53;28.95;;;11.15;;
67516;SDS011;68821;59.134;37.894;2023-10-31T09:08:20;27.20;;;10.18;;
67516;SDS011;68821;59.134;37.894;2023-10-31T09:10:46;30.60;;;11.32;;
67516;SDS011;68821;59.134;37.894;2023-10-31T09:13:12;33.50;;;11.68;;
67516;SDS011;68821;59.134;37.894;2023-10-31T09:15:39;42.65;;;13.05;;
67516;SDS011;68821;59.134;37.894;2023-10-31T09:18:06;44.17;;;15.68;;
67516;SDS011;68821;59.134;37.894;2023-10-31T09:20:33;37.10;;;14.35;;
67516;SDS011;68821;59.134;37.894;2023-10-31T09:22:59;27.35;;;10.50;;
67516;SDS011;68821;59.134;37.894;2023-10-31T09:25:26;24.73;;;10.30;;
67516;SDS011;68821;59.134;37.894;2023-10-31T09:27:52;31.58;;;11.48;;
67516;SDS011;68821;59.134;37.894;2023-10-31T09:30:18;28.77;;;11.85;;
67516;SDS011;68821;59.134;37.894;2023-10-31T09:32:44;24.23;;;9.50;;
67516;SDS011;68821;59.134;37.894;2023-10-31T09:35:11;27.33;;;11.10;;
67516;SDS011;68821;59.134;37.894;2023-10-31T09:37:38;27.85;;;11.18;;
67516;SDS011;68821;59.134;37.894;2023-10-31T09:40:05;27.42;;;11.32;;
67516;SDS011;68821;59.134;37.894;2023-10-31T09:42:32;27.10;;;11.10;;
67516;SDS011;68821;59.134;37.894;2023-10-31T09:44:58;26.15;;;12.10;;
67516;SDS011;68821;59.134;37.894;2023-10-31T09:47:25;24.90;;;11.27;;
67516;SDS011;68821;59.134;37.894;2023-10-31T09:49:51;28.77;;;11.55;;
67516;SDS011;68821;59.134;37.894;2023-10-31T09:52:18;31.85;;;13.10;;
67516;SDS011;68821;59.134;37.894;2023-10-31T09:54:47;30.50;;;11.40;;
67516;SDS011;68821;59.134;37.894;2023-10-31T09:57:15;26.95;;;10.68;;
67516;SDS011;68821;59.134;37.894;2023-10-31T09:59:43;22.33;;;10.38;;
67516;SDS011;68821;59.134;37.894;2023-10-31T10:02:10;24.10;;;10.40;;
67516;SDS011;68821;59.134;37.894;2023-10-31T10:04:37;23.08;;;10.45;;
67516;SDS011;68821;59.134;37.894;2023-10-31T10:07:04;22.02;;;10.80;;
67516;SDS011;68821;59.134;37.894;2023-10-31T10:09:31;25.60;;;10.57;;
67516;SDS011;68821;59.134;37.894;2023-10-31T10:12:01;22.85;;;11.43;;
67516;SDS011;68821;59.134;37.894;2023-10-31T10:14:27;22.63;;;9.45;;
67516;SDS011;68821;59.134;37.894;2023-10-31T10:16:57;28.92;;;9.68;;
67516;SDS011;68821;59.134;37.894;2023-10-31T10:19:24;22.70;;;9.57;;
67516;SDS011;68821;59.134;37.894;2023-10-31T10:21:54;18.33;;;7.93;;
67516;SDS011;68821;59.134;37.894;2023-10-31T10:24:22;21.77;;;9.57;;
67516;SDS011;68821;59.134;37.894;2023-10-31T10:26:50;20.92;;;9.77;;
67516;SDS011;68821;59.134;37.894;2023-10-31T10:29:17;22.10;;;9.07;;
67516;SDS011;68821;59.134;37.894;2023-10-31T10:31:44;20.45;;;9.70;;
67516;SDS011;68821;59.134;37.894;2023-10-31T10:34:16;20.38;;;9.90;;
67516;SDS011;68821;59.134;37.894;2023-10-31T10:36:45;19.27;;;8.40;;
67516;SDS011;68821;59.134;37.894;2023-10-31T10:39:16;22.05;;;8.32;;
67516;SDS011;68821;59.134;37.894;2023-10-31T10:41:55;19.23;;;8.18;;
67516;SDS011;68821;59.134;37.894;2023-10-31T10:44:31;14.55;;;7.30;;
67516;SDS011;68821;59.134;37.894;2023-10-31T10:47:01;16.40;;;7.00;;
67516;SDS011;68821;59.134;37.894;2023-10-31T10:49:33;16.45;;;7.03;;
67516;SDS011;68821;59.134;37.894;2023-10-31T10:52:07;13.30;;;6.25;;
67516;SDS011;68821;59.134;37.894;2023-10-31T10:55:04;13.25;;;5.57;;
67516;SDS011;68821;59.134;37.894;2023-10-31T10:57:38;14.25;;;5.90;;
67516;SDS011;68821;59.134;37.894;2023-10-31T11:00:20;17.45;;;6.65;;
67516;SDS011;68821;59.134;37.894;2023-10-31T11:02:53;16.67;;;7.05;;
67516;SDS011;68821;59.134;37.894;2023-10-31T11:05:23;12.98;;;6.40;;
67516;SDS011;68821;59.134;37.894;2023-10-31T11:07:51;13.98;;;6.28;;
67516;SDS011;68821;59.134;37.894;2023-10-31T11:10:18;18.25;;;6.55;;
67516;SDS011;68821;59.134;37.894;2023-10-31T11:12:44;15.23;;;6.60;;
67516;SDS011;68821;59.134;37.894;2023-10-31T11:15:11;14.40;;;6.82;;
67516;SDS011;68821;59.134;37.894;2023-10-31T11:17:40;15.32;;;6.78;;
67516;SDS011;68821;59.134;37.894;2023-10-31T11:20:10;20.73;;;6.25;;
67516;SDS011;68821;59.134;37.894;2023-10-31T11:22:40;12.98;;;6.07;;
67516;SDS011;68821;59.134;37.894;2023-10-31T11:25:14;18.48;;;6.40;;
67516;SDS011;68821;59.134;37.894;2023-10-31T11:27:41;21.25;;;7.13;;
67516;SDS011;68821;59.134;37.894;2023-10-31T11:30:08;18.40;;;7.85;;
67516;SDS011;68821;59.134;37.894;2023-10-31T11:32:53;15.38;;;7.00;;
67516;SDS011;68821;59.134;37.894;2023-10-31T11:35:29;18.90;;;7.38;;
67516;SDS011;68821;59.134;37.894;2023-10-31T11:38:02;15.50;;;6.88;;
67516;SDS011;68821;59.134;37.894;2023-10-31T11:40:31;16.20;;;6.75;;
67516;SDS011;68821;59.134;37.894;2023-10-31T11:43:02;16.02;;;5.80;;
67516;SDS011;68821;59.134;37.894;2023-10-31T11:48:10;17.02;;;6.70;;
67516;SDS011;68821;59.134;37.894;2023-10-31T11:50:37;13.65;;;5.70;;
67516;SDS011;68821;59.134;37.894;2023-10-31T11:53:11;15.68;;;6.53;;
67516;SDS011;68821;59.134;37.894;2023-10-31T11:55:47;15.57;;;6.00;;
67516;SDS011;68821;59.134;37.894;2023-10-31T11:58:20;13.73;;;5.75;;
67516;SDS011;68821;59.134;37.894;2023-10-31T12:00:51;16.15;;;5.20;;
67516;SDS011;68821;59.134;37.894;2023-10-31T12:03:26;18.73;;;6.38;;
67516;SDS011;68821;59.134;37.894;2023-10-31T12:11:03;11.52;;;5.03;;
67516;SDS011;68821;59.134;37.894;2023-10-31T12:13:32;20.08;;;5.55;;
67516;SDS011;68821;59.134;37.894;2023-10-31T12:16:00;15.07;;;5.25;;
67516;SDS011;68821;59.134;37.894;2023-10-31T12:18:29;19.38;;;6.40;;
67516;SDS011;68821;59.134;37.894;2023-10-31T12:20:55;15.13;;;5.75;;
67516;SDS011;68821;59.134;37.894;2023-10-31T12:23:22;21.45;;;5.63;;
67516;SDS011;68821;59.134;37.894;2023-10-31T12:25:48;18.60;;;5.32;;
67516;SDS011;68821;59.134;37.894;2023-10-31T12:28:18;15.13;;;6.13;;
67516;SDS011;68821;59.134;37.894;2023-10-31T12:30:46;13.80;;;6.97;;
67516;SDS011;68821;59.134;37.894;2023-10-31T12:33:17;21.48;;;6.32;;
67516;SDS011;68821;59.134;37.894;2023-10-31T12:35:43;15.25;;;5.90;;
67516;SDS011;68821;59.134;37.894;2023-10-31T12:38:10;13.43;;;5.28;;
67516;SDS011;68821;59.134;37.894;2023-10-31T12:40:38;14.50;;;5.78;;
67516;SDS011;68821;59.134;37.894;2023-10-31T12:43:06;10.07;;;4.85;;
67516;SDS011;68821;59.134;37.894;2023-10-31T12:45:33;16.65;;;5.82;;
67516;SDS011;68821;59.134;37.894;2023-10-31T12:48:02;13.00;;;5.35;;
67516;SDS011;68821;59.134;37.894;2023-10-31T12:50:33;12.75;;;5.45;;
67516;SDS011;68821;59.134;37.894;2023-10-31T12:53:00;13.00;;;5.40;;
67516;SDS011;68821;59.134;37.894;2023-10-31T12:55:27;15.13;;;5.57;;
67516;SDS011;68821;59.134;37.894;2023-10-31T12:57:57;13.73;;;5.22;;
67516;SDS011;68821;59.134;37.894;2023-10-31T13:00:30;14.13;;;5.97;;
67516;SDS011;68821;59.134;37.894;2023-10-31T13:05:27;13.13;;;5.63;;
67516;SDS011;68821;59.134;37.894;2023-10-31T13:07:54;11.35;;;5.03;;
67516;SDS011;68821;59.134;37.894;2023-10-31T13:10:23;17.88;;;5.68;;
67516;SDS011;68821;59.134;37.894;2023-10-31T13:12:50;21.17;;;5.82;;
67516;SDS011;68821;59.134;37.894;2023-10-31T13:15:18;10.50;;;4.70;;
67516;SDS011;68821;59.134;37.894;2023-10-31T13:17:45;12.43;;;4.82;;
67516;SDS011;68821;59.134;37.894;2023-10-31T13:20:12;16.55;;;5.88;;
67516;SDS011;68821;59.134;37.894;2023-10-31T13:22:39;14.05;;;5.30;;
67516;SDS011;68821;59.134;37.894;2023-10-31T13:25:07;13.77;;;4.93;;
67516;SDS011;68821;59.134;37.894;2023-10-31T13:27:36;14.07;;;4.50;;
67516;SDS011;68821;59.134;37.894;2023-10-31T13:30:03;17.63;;;5.85;;
67516;SDS011;68821;59.134;37.894;2023-10-31T13:32:30;10.02;;;4.75;;
67516;SDS011;68821;59.134;37.894;2023-10-31T13:34:57;14.38;;;5.28;;
67516;SDS011;68821;59.134;37.894;2023-10-31T13:37:23;12.00;;;5.38;;
67516;SDS011;68821;59.134;37.894;2023-10-31T13:39:49;15.07;;;4.43;;
67516;SDS011;68821;59.134;37.894;2023-10-31T13:42:15;13.25;;;4.80;;
67516;SDS011;68821;59.134;37.894;2023-10-31T13:44:43;12.57;;;4.55;;
67516;SDS011;68821;59.134;37.894;2023-10-31T13:47:09;10.90;;;4.20;;
67516;SDS011;68821;59.134;37.894;2023-10-31T13:49:36;12.32;;;4.57;;
67516;SDS011;68821;59.134;37.894;2023-10-31T13:52:05;12.50;;;4.35;;
67516;SDS011;68821;59.134;37.894;2023-10-31T13:54:32;17.02;;;5.82;;
67516;SDS011;68821;59.134;37.894;2023-10-31T13:56:58;20.00;;;7.35;;
67516;SDS011;68821;59.134;37.894;2023-10-31T13:59:24;17.25;;;6.53;;
67516;SDS011;68821;59.134;37.894;2023-10-31T14:01:51;18.80;;;6.90;;
67516;SDS011;68821;59.134;37.894;2023-10-31T14:04:17;15.38;;;5.15;;
67516;SDS011;68821;59.134;37.894;2023-10-31T14:06:44;11.40;;;4.72;;
67516;SDS011;68821;59.134;37.894;2023-10-31T14:09:11;15.52;;;5.00;;
67516;SDS011;68821;59.134;37.894;2023-10-31T14:11:37;12.75;;;4.93;;
67516;SDS011;68821;59.134;37.894;2023-10-31T14:14:04;11.18;;;5.38;;
67516;SDS011;68821;59.134;37.894;2023-10-31T14:16:36;11.85;;;4.55;;
67516;SDS011;68821;59.134;37.894;2023-10-31T14:19:04;11.15;;;4.50;;
67516;SDS011;68821;59.134;37.894;2023-10-31T14:21:31;16.27;;;5.40;;
67516;SDS011;68821;59.134;37.894;2023-10-31T14:23:57;11.80;;;5.07;;
67516;SDS011;68821;59.134;37.894;2023-10-31T14:26:23;14.00;;;4.72;;
67516;SDS011;68821;59.134;37.894;2023-10-31T14:28:49;19.60;;;5.72;;
67516;SDS011;68821;59.134;37.894;2023-10-31T14:31:16;17.42;;;5.78;;
67516;SDS011;68821;59.134;37.894;2023-10-31T14:33:42;14.30;;;4.65;;
67516;SDS011;68821;59.134;37.894;2023-10-31T14:36:09;17.77;;;5.50;;
67516;SDS011;68821;59.134;37.894;2023-10-31T14:38:37;15.18;;;6.20;;
67516;SDS011;68821;59.134;37.894;2023-10-31T14:41:03;18.15;;;5.45;;
67516;SDS011;68821;59.134;37.894;2023-10-31T14:43:29;14.23;;;5.40;;
67516;SDS011;68821;59.134;37.894;2023-10-31T14:45:56;12.00;;;6.00;;
67516;SDS011;68821;59.134;37.894;2023-10-31T14:48:22;17.35;;;5.57;;
67516;SDS011;68821;59.134;37.894;2023-10-31T14:50:49;19.60;;;6.90;;